createdAt,value
2022-08-25T00:01:35.196Z,50.67
2022-08-25T00:04:06.392Z,51.30
2022-08-25T00:06:33.140Z,51.25
2022-08-25T00:08:59.461Z,51.73
2022-08-25T00:11:29.891Z,51.81
2022-08-25T00:13:59.920Z,51.64
2022-08-25T00:16:26.918Z,52.07
2022-08-25T00:18:57.025Z,51.82
2022-08-25T00:21:24.133Z,51.68
2022-08-25T00:23:51.053Z,51.11
2022-08-25T00:26:17.886Z,52.73
2022-08-25T00:28:44.647Z,52.83
2022-08-25T00:31:15.788Z,54.02
2022-08-25T00:33:43.663Z,54.54
2022-08-25T00:36:10.300Z,54.76
2022-08-25T00:38:36.616Z,53.87
2022-08-25T00:41:03.948Z,53.67
2022-08-25T00:43:42.560Z,54.21
2022-08-25T00:46:10.340Z,53.14
2022-08-25T00:48:38.923Z,53.98
2022-08-25T00:51:09.553Z,54.94
2022-08-25T00:53:35.995Z,55.30
2022-08-25T00:56:02.595Z,55.00
2022-08-25T00:58:29.490Z,55.83
2022-08-25T01:00:56.794Z,54.87
2022-08-25T01:03:33.212Z,55.76
2022-08-25T01:06:03.802Z,56.50
2022-08-25T01:08:32.384Z,56.41
2022-08-25T01:11:02.518Z,56.49
2022-08-25T01:13:43.327Z,56.59
2022-08-25T01:16:10.285Z,56.68
2022-08-25T01:18:52.886Z,57.16
2022-08-25T01:21:21.300Z,57.95
2022-08-25T01:23:49.508Z,57.92
2022-08-25T01:26:21.252Z,58.52
2022-08-25T01:28:57.900Z,58.06
2022-08-25T01:31:24.551Z,58.66
2022-08-25T01:33:51.085Z,58.11
2022-08-25T01:36:22.605Z,58.99
2022-08-25T01:38:50.040Z,59.68
2022-08-25T01:41:25.610Z,59.81
2022-08-25T01:43:52.317Z,59.87
2022-08-25T01:46:18.764Z,60.63
2022-08-25T01:48:45.139Z,60.48
2022-08-25T01:51:11.503Z,60.65
2022-08-25T01:53:37.970Z,60.23
2022-08-25T01:56:12.824Z,61.06
2022-08-25T01:58:42.943Z,61.28
2022-08-25T02:01:17.257Z,61.76
2022-08-25T02:03:46.560Z,61.29
2022-08-25T02:06:18.946Z,61.67
2022-08-25T02:08:45.355Z,60.87
2022-08-25T02:11:14.271Z,62.22
2022-08-25T02:13:42.118Z,61.46
2022-08-25T02:16:14.554Z,62.10
2022-08-25T02:18:40.895Z,61.99
2022-08-25T02:21:07.266Z,62.79
2022-08-25T02:23:33.623Z,61.92
2022-08-25T02:25:59.924Z,62.75
2022-08-25T02:28:26.316Z,63.87
2022-08-25T02:30:52.983Z,63.76
2022-08-25T02:33:27.491Z,63.76
2022-08-25T02:35:57.677Z,64.03
2022-08-25T02:38:24.027Z,63.40
2022-08-25T02:40:50.448Z,63.51
2022-08-25T02:43:16.799Z,63.49
2022-08-25T02:45:43.140Z,64.08
2022-08-25T02:48:09.884Z,63.52
2022-08-25T02:50:36.210Z,61.88
2022-08-25T02:53:02.544Z,61.04
2022-08-25T02:55:29.263Z,60.24
2022-08-25T02:57:55.631Z,60.47
2022-08-25T03:00:22.084Z,60.45
2022-08-25T03:02:49.604Z,59.98
2022-08-25T03:05:16.585Z,60.20
2022-08-25T03:07:42.970Z,59.86
2022-08-25T03:10:14.831Z,61.34
2022-08-25T03:12:41.238Z,61.54
2022-08-25T03:15:13.264Z,62.19
2022-08-25T03:17:39.941Z,61.84
2022-08-25T03:20:07.834Z,61.24
2022-08-25T03:22:34.139Z,61.41
2022-08-25T03:25:01.751Z,61.40
2022-08-25T03:27:29.380Z,62.11
2022-08-25T03:29:55.740Z,61.38
2022-08-25T03:32:22.061Z,61.34
2022-08-25T03:34:48.360Z,61.93
2022-08-25T03:37:14.795Z,64.05
2022-08-25T03:39:41.154Z,64.38
2022-08-25T03:42:07.530Z,67.43
2022-08-25T03:44:33.928Z,68.75
2022-08-25T03:47:00.252Z,68.53
2022-08-25T03:49:26.564Z,67.87
2022-08-25T03:51:53.723Z,68.82
2022-08-25T03:54:23.648Z,69.15
2022-08-25T03:56:49.987Z,69.31
2022-08-25T03:59:18.042Z,69.27
2022-08-25T04:01:47.713Z,68.56
2022-08-25T04:04:16.640Z,68.93
2022-08-25T04:06:44.352Z,68.88
2022-08-25T04:09:11.461Z,68.74
2022-08-25T04:11:38.433Z,69.29
2022-08-25T04:14:04.887Z,68.61
2022-08-25T04:16:34.482Z,69.96
2022-08-25T04:19:02.683Z,69.54
2022-08-25T04:21:29.152Z,70.67
2022-08-25T04:23:56.315Z,69.87
2022-08-25T04:26:29.905Z,69.87
2022-08-25T04:28:57.502Z,69.85
2022-08-25T04:31:23.933Z,70.06
2022-08-25T04:33:50.636Z,70.78
2022-08-25T04:36:18.800Z,71.55
2022-08-25T04:38:46.570Z,71.34
2022-08-25T04:41:14.914Z,71.21
2022-08-25T04:43:42.482Z,71.89
2022-08-25T04:46:19.469Z,72.40
2022-08-25T04:48:48.192Z,72.99
2022-08-25T04:51:18.346Z,73.89
2022-08-25T04:53:44.790Z,73.90
2022-08-25T04:56:16.248Z,71.73
2022-08-25T04:58:42.796Z,71.74
2022-08-25T05:01:12.658Z,72.49
2022-08-25T05:03:39.163Z,73.73
2022-08-25T05:06:06.164Z,73.77
2022-08-25T05:08:35.215Z,73.11
2022-08-25T05:11:09.861Z,72.73
2022-08-25T05:13:36.836Z,71.34
2022-08-25T05:16:03.838Z,72.42
2022-08-25T05:18:32.519Z,71.95
2022-08-25T05:21:03.475Z,71.56
2022-08-25T05:23:30.000Z,72.93
2022-08-25T05:26:03.203Z,72.38
2022-08-25T05:28:29.673Z,71.73
2022-08-25T05:31:01.832Z,71.71
2022-08-25T05:33:30.578Z,73.83
2022-08-25T05:35:59.592Z,73.52
2022-08-25T05:38:26.396Z,74.35
2022-08-25T05:40:57.354Z,73.96
2022-08-25T05:43:23.707Z,73.57
2022-08-25T05:45:50.233Z,74.30
2022-08-25T05:48:16.579Z,75.18
2022-08-25T05:50:51.301Z,73.65
2022-08-25T05:53:17.618Z,73.58
2022-08-25T05:55:45.019Z,73.75
2022-08-25T05:58:11.339Z,73.85
2022-08-25T06:00:41.296Z,72.58
2022-08-25T06:03:07.707Z,72.87
2022-08-25T06:05:34.290Z,72.12
2022-08-25T06:08:00.634Z,71.69
2022-08-25T06:10:27.494Z,72.70
2022-08-25T06:12:54.000Z,72.47
2022-08-25T06:15:25.345Z,72.05
2022-08-25T06:17:52.459Z,71.63
2022-08-25T06:20:22.168Z,72.32
2022-08-25T06:22:52.213Z,71.47
2022-08-25T06:25:22.025Z,70.50
2022-08-25T06:27:49.114Z,70.78
2022-08-25T06:30:23.726Z,68.80
2022-08-25T06:32:50.954Z,68.07
2022-08-25T06:35:18.882Z,67.87
2022-08-25T06:37:46.084Z,68.37
2022-08-25T06:40:14.520Z,69.47
2022-08-25T06:42:41.188Z,68.15
2022-08-25T06:45:08.450Z,66.61
2022-08-25T06:47:34.985Z,67.68
2022-08-25T06:50:01.473Z,67.63
2022-08-25T06:52:27.917Z,67.52
2022-08-25T06:54:55.795Z,69.64
2022-08-25T06:57:22.137Z,69.51
2022-08-25T06:59:48.487Z,68.77
2022-08-25T07:02:22.309Z,69.07
2022-08-25T07:04:49.288Z,69.55
2022-08-25T07:07:15.602Z,68.14
2022-08-25T07:09:41.930Z,68.52
2022-08-25T07:12:08.452Z,67.30
2022-08-25T07:14:34.829Z,66.01
2022-08-25T07:17:03.066Z,65.42
2022-08-25T07:19:37.172Z,66.12
2022-08-25T07:22:03.534Z,65.67
2022-08-25T07:24:29.879Z,65.65
2022-08-25T07:26:56.223Z,64.80
2022-08-25T07:29:32.051Z,64.71
2022-08-25T07:32:00.645Z,65.38
2022-08-25T07:34:27.010Z,64.73
2022-08-25T07:36:56.168Z,64.73
2022-08-25T07:39:23.772Z,64.62
2022-08-25T07:41:51.987Z,63.90
2022-08-25T07:44:20.575Z,64.21
2022-08-25T07:46:46.991Z,63.90
2022-08-25T07:49:16.684Z,63.46
2022-08-25T07:52:05.050Z,64.57
2022-08-25T07:54:33.977Z,63.44
2022-08-25T07:57:04.710Z,63.95
2022-08-25T07:59:39.311Z,64.99
2022-08-25T08:02:18.362Z,64.93
2022-08-25T08:04:50.446Z,62.75
2022-08-25T08:07:41.919Z,63.37
2022-08-25T08:10:42.465Z,64.09
2022-08-25T08:12:58.624Z,63.46
2022-08-25T08:15:24.974Z,63.57
2022-08-25T08:17:54.768Z,61.88
2022-08-25T08:20:23.479Z,62.38
2022-08-25T08:22:50.279Z,60.76
2022-08-25T08:25:18.834Z,61.22
2022-08-25T08:27:49.343Z,62.27
2022-08-25T08:30:16.485Z,62.11
2022-08-25T08:33:08.103Z,63.18
2022-08-25T08:35:29.151Z,62.39
2022-08-25T08:37:55.583Z,61.93
2022-08-25T08:40:22.065Z,60.17
2022-08-25T08:43:18.504Z,61.39
2022-08-25T08:45:51.748Z,61.10
2022-08-25T08:48:35.925Z,60.73
2022-08-25T08:51:20.439Z,60.81
2022-08-25T08:54:04.235Z,60.79
2022-08-25T08:56:45.228Z,58.59
2022-08-25T08:59:30.276Z,56.49
2022-08-25T09:02:02.737Z,55.42
2022-08-25T09:04:59.053Z,56.70
2022-08-25T09:07:35.599Z,56.20
2022-08-25T09:10:02.309Z,57.44
2022-08-25T09:13:01.503Z,56.74
2022-08-25T09:15:54.644Z,58.05
2022-08-25T09:18:41.050Z,57.80
2022-08-25T09:21:19.879Z,54.27
2022-08-25T09:24:12.631Z,56.77
2022-08-25T09:27:03.782Z,58.31
2022-08-25T09:29:47.936Z,59.00
2022-08-25T09:32:16.828Z,58.39
2022-08-25T09:34:52.497Z,57.94
2022-08-25T09:37:18.839Z,56.79
2022-08-25T09:39:46.715Z,54.36
2022-08-25T09:42:13.697Z,55.27
2022-08-25T09:44:43.171Z,56.17
2022-08-25T09:47:18.631Z,55.88
2022-08-25T09:49:48.090Z,55.07
2022-08-25T09:52:37.427Z,55.76
2022-08-25T09:55:13.297Z,55.12
2022-08-25T09:57:47.608Z,55.46
2022-08-25T10:00:19.730Z,54.66
2022-08-25T10:03:06.038Z,54.92
2022-08-25T10:05:35.449Z,55.92
2022-08-25T10:08:11.084Z,55.52
2022-08-25T10:10:45.838Z,55.69
2022-08-25T10:13:22.961Z,55.57
2022-08-25T10:16:18.046Z,54.23
2022-08-25T10:19:00.986Z,53.69
2022-08-25T10:21:27.303Z,53.49
2022-08-25T10:23:54.296Z,51.95
2022-08-25T10:26:41.685Z,52.66
2022-08-25T10:29:30.618Z,52.23
2022-08-25T10:32:14.186Z,51.79
2022-08-25T10:34:55.754Z,52.22
2022-08-25T10:37:55.135Z,53.41
2022-08-25T10:40:32.198Z,54.05
2022-08-25T10:43:10.879Z,53.43
2022-08-25T10:45:47.081Z,53.10
2022-08-25T10:48:30.881Z,53.65
2022-08-25T10:51:09.662Z,53.36
2022-08-25T10:53:52.225Z,52.64
2022-08-25T10:56:27.452Z,51.23
2022-08-25T10:59:27.862Z,51.15
2022-08-25T11:02:42.163Z,49.90
2022-08-25T11:05:27.032Z,49.64
2022-08-25T11:08:23.707Z,49.98
2022-08-25T11:11:00.596Z,50.09
2022-08-25T11:13:41.377Z,49.32
2022-08-25T11:16:19.282Z,50.69
2022-08-25T11:18:55.409Z,50.32
2022-08-25T11:21:43.830Z,50.26
2022-08-25T11:24:36.605Z,50.87
2022-08-25T11:27:07.553Z,50.76
2022-08-25T11:29:37.747Z,50.25
2022-08-25T11:32:06.326Z,50.51
2022-08-25T11:34:36.128Z,52.51
2022-08-25T11:37:24.396Z,52.92
2022-08-25T11:39:59.917Z,52.48
2022-08-25T11:42:44.352Z,52.06
2022-08-25T11:45:47.467Z,50.89
2022-08-25T11:48:52.734Z,51.16
2022-08-25T11:51:36.516Z,49.74
2022-08-25T11:54:16.989Z,48.97
2022-08-25T11:56:53.028Z,48.93
2022-08-25T11:59:50.294Z,49.54
2022-08-25T12:02:43.697Z,49.45
2022-08-25T12:05:19.451Z,48.95
2022-08-25T12:08:05.849Z,48.14
2022-08-25T12:10:51.823Z,49.14
2022-08-25T12:13:38.689Z,48.84
2022-08-25T12:16:05.961Z,48.34
2022-08-25T12:18:32.217Z,48.72
2022-08-25T12:20:58.478Z,48.12
2022-08-25T12:23:35.198Z,48.69
2022-08-25T12:26:11.899Z,48.91
2022-08-25T12:28:47.670Z,49.73
2022-08-25T12:31:46.222Z,48.27
2022-08-25T12:34:30.925Z,47.21
2022-08-25T12:37:18.644Z,46.91
2022-08-25T12:39:54.502Z,46.90
2022-08-25T12:42:37.002Z,47.32
2022-08-25T12:45:16.067Z,47.23
2022-08-25T12:47:44.970Z,47.52
2022-08-25T12:50:35.223Z,47.16
2022-08-25T12:53:27.971Z,47.06
2022-08-25T12:56:04.914Z,46.13
2022-08-25T12:59:02.010Z,45.84
2022-08-25T13:02:06.998Z,45.10
2022-08-25T13:04:43.490Z,44.82
2022-08-25T13:07:24.465Z,45.55
2022-08-25T13:10:18.316Z,46.23
2022-08-25T13:12:58.308Z,46.46
2022-08-25T13:15:27.520Z,46.23
2022-08-25T13:17:53.846Z,45.90
2022-08-25T13:20:25.367Z,45.41
2022-08-25T13:22:57.884Z,45.72
2022-08-25T13:25:31.932Z,45.64
2022-08-25T13:28:02.789Z,45.84
2022-08-25T13:30:35.332Z,45.28
2022-08-25T13:33:23.075Z,44.97
2022-08-25T13:35:52.546Z,45.29
2022-08-25T13:38:19.501Z,44.09
2022-08-25T13:40:46.384Z,44.75
2022-08-25T13:43:15.037Z,43.47
2022-08-25T13:45:44.921Z,42.84
2022-08-25T13:48:22.673Z,43.42
2022-08-25T13:50:51.681Z,43.80
2022-08-25T13:53:24.738Z,43.49
2022-08-25T13:55:56.948Z,43.95
2022-08-25T13:58:44.817Z,43.54
2022-08-25T14:01:47.741Z,42.58
2022-08-25T14:04:29.900Z,42.73
2022-08-25T14:07:14.018Z,43.19
2022-08-25T14:09:51.350Z,43.79
2022-08-25T14:12:36.944Z,43.74
2022-08-25T14:15:27.292Z,43.97
2022-08-25T14:18:08.408Z,44.02
2022-08-25T14:20:37.099Z,43.92
2022-08-25T14:23:10.373Z,43.01
2022-08-25T14:25:37.265Z,42.90
2022-08-25T14:28:16.083Z,42.43
2022-08-25T14:30:47.084Z,42.73
2022-08-25T14:33:14.988Z,42.79
2022-08-25T14:35:44.385Z,42.60
2022-08-25T14:38:11.700Z,42.91
2022-08-25T14:40:39.149Z,42.96
2022-08-25T14:43:07.447Z,43.60
2022-08-25T14:45:39.231Z,43.44
2022-08-25T14:48:10.619Z,43.20
2022-08-25T14:50:38.374Z,42.75
2022-08-25T14:53:10.532Z,43.10
2022-08-25T14:55:36.970Z,42.32
2022-08-25T14:58:03.416Z,41.66
2022-08-25T15:00:37.050Z,43.35
2022-08-25T15:03:03.784Z,42.25
2022-08-25T15:05:30.123Z,42.65
2022-08-25T15:07:57.317Z,44.03
2022-08-25T15:10:23.649Z,43.71
2022-08-25T15:12:51.210Z,44.07
2022-08-25T15:15:21.253Z,44.25
2022-08-25T15:17:49.463Z,43.61
2022-08-25T15:20:17.186Z,43.75
2022-08-25T15:22:43.623Z,43.32
2022-08-25T15:25:10.286Z,42.85
2022-08-25T15:27:37.266Z,42.79
2022-08-25T15:30:05.401Z,43.05
2022-08-25T15:32:31.875Z,43.42
2022-08-25T15:34:58.228Z,43.53
2022-08-25T15:37:24.757Z,43.68
2022-08-25T15:39:51.921Z,43.81
2022-08-25T15:42:18.551Z,43.45
2022-08-25T15:44:53.376Z,43.90
2022-08-25T15:47:20.456Z,43.95
2022-08-25T15:49:47.152Z,43.55
2022-08-25T15:52:13.478Z,44.10
2022-08-25T15:54:39.882Z,43.61
2022-08-25T15:57:08.762Z,44.12
2022-08-25T15:59:35.888Z,44.28
2022-08-25T16:02:14.788Z,44.03
2022-08-25T16:04:41.698Z,44.08
2022-08-25T16:07:09.241Z,44.55
2022-08-25T16:09:40.475Z,44.00
2022-08-25T16:12:08.482Z,45.15
2022-08-25T16:14:35.700Z,44.73
2022-08-25T16:17:02.028Z,44.65
2022-08-25T16:19:28.899Z,44.89
2022-08-25T16:21:55.496Z,44.98
2022-08-25T16:24:21.821Z,44.97
2022-08-25T16:26:48.848Z,45.30
2022-08-25T16:29:15.585Z,45.45
2022-08-25T16:31:43.175Z,45.38
2022-08-25T16:34:09.602Z,45.25
2022-08-25T16:36:38.007Z,45.49
2022-08-25T16:39:04.878Z,45.85
2022-08-25T16:41:36.448Z,45.19
2022-08-25T16:44:04.837Z,45.50
2022-08-25T16:46:31.177Z,45.82
2022-08-25T16:49:01.652Z,45.49
2022-08-25T16:51:29.585Z,45.48
2022-08-25T16:53:57.093Z,45.38
2022-08-25T16:56:23.443Z,45.22
2022-08-25T16:58:53.467Z,44.65
2022-08-25T17:01:20.148Z,45.62
2022-08-25T17:03:46.684Z,45.21
2022-08-25T17:06:13.086Z,45.26
2022-08-25T17:08:40.556Z,45.34
2022-08-25T17:11:15.736Z,45.62
2022-08-25T17:13:45.694Z,45.03
2022-08-25T17:16:14.618Z,45.43
2022-08-25T17:18:42.194Z,45.73
2022-08-25T17:21:19.478Z,45.67
2022-08-25T17:23:51.328Z,45.62
2022-08-25T17:26:17.922Z,45.94
2022-08-25T17:28:44.228Z,45.53
2022-08-25T17:31:12.644Z,46.09
2022-08-25T17:33:39.042Z,46.14
2022-08-25T17:36:06.652Z,46.23
2022-08-25T17:38:33.986Z,46.13
2022-08-25T17:41:02.930Z,46.70
2022-08-25T17:43:33.618Z,46.32
2022-08-25T17:46:00.027Z,46.51
2022-08-25T17:48:27.877Z,46.54
2022-08-25T17:50:55.360Z,46.56
2022-08-25T17:53:21.813Z,46.48
2022-08-25T17:56:06.854Z,46.59
2022-08-25T17:58:33.471Z,46.15
2022-08-25T18:00:59.872Z,46.55
2022-08-25T18:03:27.297Z,46.38
2022-08-25T18:05:53.963Z,46.46
2022-08-25T18:08:20.371Z,46.86
2022-08-25T18:10:58.817Z,45.99
2022-08-25T18:13:25.141Z,46.28
2022-08-25T18:15:51.464Z,47.04
2022-08-25T18:18:17.993Z,47.08
2022-08-25T18:20:45.884Z,47.09
2022-08-25T18:23:13.370Z,47.14
2022-08-25T18:25:41.639Z,46.86
2022-08-25T18:28:08.920Z,47.48
2022-08-25T18:30:36.291Z,47.24
2022-08-25T18:33:02.699Z,47.91
2022-08-25T18:35:29.693Z,48.02
2022-08-25T18:37:56.062Z,48.21
2022-08-25T18:40:22.981Z,48.60
2022-08-25T18:42:54.323Z,48.39
2022-08-25T18:45:25.538Z,49.34
2022-08-25T18:47:53.365Z,48.73
2022-08-25T18:50:20.491Z,48.81
2022-08-25T18:52:46.832Z,49.33
2022-08-25T18:55:13.492Z,48.97
2022-08-25T18:57:41.734Z,48.38
2022-08-25T19:00:11.513Z,49.55
2022-08-25T19:02:38.015Z,49.48
2022-08-25T19:05:07.557Z,49.53
2022-08-25T19:07:36.874Z,49.03
2022-08-25T19:10:06.879Z,49.62
2022-08-25T19:12:33.661Z,49.67
2022-08-25T19:15:04.694Z,49.90
2022-08-25T19:17:37.530Z,50.21
2022-08-25T19:20:11.294Z,49.69
2022-08-25T19:22:42.068Z,50.15
2022-08-25T19:25:10.107Z,50.01
2022-08-25T19:27:36.806Z,51.02
2022-08-25T19:30:06.525Z,50.78
2022-08-25T19:32:33.129Z,50.21
2022-08-25T19:34:59.476Z,51.43
2022-08-25T19:37:28.419Z,51.75
2022-08-25T19:39:55.308Z,51.48
2022-08-25T19:42:37.224Z,52.04
2022-08-25T19:45:11.349Z,51.34
2022-08-25T19:47:37.913Z,51.73
2022-08-25T19:50:05.929Z,51.99
2022-08-25T19:52:32.616Z,52.02
2022-08-25T19:54:58.946Z,51.96
2022-08-25T19:57:28.266Z,51.86
2022-08-25T20:00:10.347Z,52.11
2022-08-25T20:02:36.749Z,52.05
2022-08-25T20:05:04.621Z,52.32
2022-08-25T20:07:32.683Z,52.23
2022-08-25T20:10:00.506Z,52.41
2022-08-25T20:12:28.544Z,52.14
2022-08-25T20:14:55.451Z,53.08
2022-08-25T20:17:24.670Z,52.62
2022-08-25T20:19:55.383Z,53.29
2022-08-25T20:22:26.104Z,53.24
2022-08-25T20:24:55.800Z,53.06
2022-08-25T20:27:27.976Z,53.01
2022-08-25T20:29:54.308Z,53.62
2022-08-25T20:32:20.683Z,53.73
2022-08-25T20:34:48.031Z,54.44
2022-08-25T20:37:14.726Z,54.65
2022-08-25T20:39:41.356Z,54.47
2022-08-25T20:42:08.207Z,54.46
2022-08-25T20:44:41.784Z,55.02
2022-08-25T20:47:10.503Z,54.28
2022-08-25T20:49:38.000Z,54.89
2022-08-25T20:52:05.117Z,54.24
2022-08-25T20:54:31.621Z,54.77
2022-08-25T20:56:58.879Z,54.61
2022-08-25T20:59:27.273Z,54.76
2022-08-25T21:01:55.244Z,55.47
2022-08-25T21:04:24.443Z,55.43
2022-08-25T21:06:50.847Z,55.03
2022-08-25T21:09:20.033Z,55.02
2022-08-25T21:11:47.688Z,55.97
2022-08-25T21:14:14.369Z,56.84
2022-08-25T21:16:42.784Z,57.45
2022-08-25T21:19:11.087Z,56.53
2022-08-25T21:21:38.582Z,56.63
2022-08-25T21:24:09.789Z,57.20
2022-08-25T21:26:37.709Z,57.46
2022-08-25T21:29:16.356Z,57.82
2022-08-25T21:31:42.774Z,58.06
2022-08-25T21:34:10.876Z,56.99
2022-08-25T21:36:39.285Z,57.70
2022-08-25T21:39:05.975Z,57.03
2022-08-25T21:41:33.961Z,57.48
2022-08-25T21:44:01.373Z,57.77
2022-08-25T21:46:30.399Z,57.63
2022-08-25T21:48:58.875Z,58.56
2022-08-25T21:51:29.571Z,57.98
2022-08-25T21:53:56.856Z,57.80
2022-08-25T21:56:23.172Z,56.99
2022-08-25T21:58:52.737Z,58.16
2022-08-25T22:01:20.179Z,57.95
2022-08-25T22:03:47.362Z,58.64
2022-08-25T22:06:14.892Z,58.05
2022-08-25T22:08:43.015Z,58.46
2022-08-25T22:11:10.414Z,58.28
2022-08-25T22:13:38.285Z,58.79
2022-08-25T22:16:07.680Z,58.41
2022-08-25T22:18:34.678Z,59.11
2022-08-25T22:21:01.186Z,59.17
2022-08-25T22:23:44.663Z,59.57
2022-08-25T22:26:12.700Z,58.74
2022-08-25T22:28:39.673Z,58.00
2022-08-25T22:31:10.544Z,58.39
2022-08-25T22:33:37.009Z,59.03
2022-08-25T22:36:23.228Z,58.98
2022-08-25T22:38:54.131Z,59.39
2022-08-25T22:41:21.922Z,59.55
2022-08-25T22:43:49.527Z,59.80
2022-08-25T22:46:19.206Z,60.02
2022-08-25T22:48:46.201Z,59.68
2022-08-25T22:51:15.530Z,59.45
2022-08-25T22:53:43.793Z,59.33
2022-08-25T22:56:12.091Z,59.29
2022-08-25T22:58:39.248Z,59.36
2022-08-25T23:01:17.448Z,59.71
2022-08-25T23:03:45.076Z,60.17
2022-08-25T23:06:25.044Z,60.30
2022-08-25T23:08:53.921Z,60.87
2022-08-25T23:11:21.845Z,60.46
2022-08-25T23:13:48.499Z,59.75
2022-08-25T23:16:15.592Z,60.04
2022-08-25T23:18:43.926Z,60.82
2022-08-25T23:21:11.398Z,60.47
2022-08-25T23:23:37.710Z,60.47
2022-08-25T23:26:04.461Z,60.07
2022-08-25T23:28:31.080Z,60.22
2022-08-25T23:30:59.271Z,59.44
2022-08-25T23:33:26.366Z,61.16
2022-08-25T23:36:00.923Z,60.77
2022-08-25T23:38:27.276Z,60.22
2022-08-25T23:40:54.614Z,60.00
2022-08-25T23:43:21.447Z,61.07
2022-08-25T23:45:48.174Z,60.64
2022-08-25T23:48:14.891Z,61.14
2022-08-25T23:50:47.204Z,61.18
2022-08-25T23:53:20.503Z,60.73
2022-08-25T23:55:53.015Z,60.62
2022-08-25T23:58:20.247Z,60.04
